Time;durP1;ratioP1;P1;durP2;ratioP2;P2;SDS_P1;SDS_P2;PMS_P1;PMS_P2;Temp;Humidity;BMP_temperature;BMP_pressure;BME280_temperature;BME280_humidity;BME280_pressure;Samples;Min_cycle;Max_cycle;Signal;HPM_P1;HPM_P2
2021/06/06 00:01:54;;;;;;;6.20;5.70;;;25.80;78.10;;;;;;5135862;27;20969;-90
2021/06/06 00:04:22;;;;;;;6.23;5.83;;;25.80;78.10;;;;;;5136141;27;20807;-90
2021/06/06 00:06:49;;;;;;;6.23;5.83;;;25.80;78.90;;;;;;5135677;27;21040;-90
2021/06/06 00:09:19;;;;;;;6.23;5.83;;;25.80;78.10;;;;;;5135865;27;20804;-90
2021/06/06 00:11:47;;;;;;;6.13;5.73;;;25.80;78.10;;;;;;5135812;27;20436;-90
2021/06/06 00:14:17;;;;;;;5.10;4.80;;;25.80;78.20;;;;;;5135552;27;20437;-90
2021/06/06 00:16:46;;;;;;;6.20;5.80;;;25.80;78.20;;;;;;5135616;27;20440;-90
2021/06/06 00:19:15;;;;;;;5.07;4.77;;;25.80;78.10;;;;;;5135306;27;20478;-90
2021/06/06 00:21:42;;;;;;;6.47;5.97;;;25.80;78.20;;;;;;5135518;27;20947;-91
2021/06/06 00:24:11;;;;;;;5.97;5.57;;;25.80;78.20;;;;;;5135462;27;20561;-91
2021/06/06 00:26:39;;;;;;;6.13;5.73;;;25.80;78.10;;;;;;5135234;27;20446;-91
2021/06/06 00:29:05;;;;;;;5.60;5.20;;;25.80;78.20;;;;;;5135732;27;20791;-90
2021/06/06 00:31:32;;;;;;;6.07;5.67;;;25.90;78.20;;;;;;5135786;27;20460;-90
2021/06/06 00:33:59;;;;;;;6.07;5.67;;;25.80;78.10;;;;;;5134513;27;20444;-91
2021/06/06 00:36:26;;;;;;;5.53;5.20;;;25.80;78.20;;;;;;5134603;27;20445;-89
2021/06/06 00:38:52;;;;;;;5.40;5.00;;;25.80;78.20;;;;;;5135069;27;20502;-91
2021/06/06 00:41:21;;;;;;;6.33;5.93;;;25.80;78.10;;;;;;5135238;27;20443;-90
2021/06/06 00:43:49;;;;;;;6.20;5.80;;;25.80;78.20;;;;;;5135620;27;20450;-90
2021/06/06 00:46:18;;;;;;;5.07;4.77;;;25.80;78.10;;;;;;5135185;27;20444;-90
2021/06/06 00:48:45;;;;;;;5.40;5.00;;;25.80;78.10;;;;;;5135365;27;21018;-90
2021/06/06 00:51:17;;;;;;;5.10;4.70;;;25.80;78.10;;;;;;5135666;27;20768;-90
2021/06/06 00:53:48;;;;;;;5.80;5.40;;;25.70;78.00;;;;;;5135519;27;20448;-90
2021/06/06 00:56:18;;;;;;;5.33;5.00;;;25.80;79.00;;;;;;5135413;27;20471;-90
2021/06/06 00:58:47;;;;;;;5.33;5.03;;;25.80;78.20;;;;;;5135143;27;20552;-90
2021/06/06 01:01:17;;;;;;;5.77;5.27;;;25.70;78.00;;;;;;5135498;27;20494;-90
2021/06/06 01:03:45;;;;;;;6.00;5.60;;;25.70;78.00;;;;;;5135292;27;20770;-91
2021/06/06 01:06:17;;;;;;;5.23;4.93;;;25.70;78.00;;;;;;5135256;27;20795;-91
2021/06/06 01:08:43;;;;;;;5.80;5.43;;;25.70;78.00;;;;;;5134952;27;20799;-90
2021/06/06 01:11:19;;;;;;;4.90;4.60;;;25.70;78.00;;;;;;5135059;27;20866;-90
2021/06/06 01:13:49;;;;;;;5.10;4.80;;;25.70;78.00;;;;;;5134625;27;20925;-90
2021/06/06 01:16:20;;;;;;;5.60;5.30;;;25.70;78.00;;;;;;5134510;27;20485;-90
2021/06/06 01:18:49;;;;;;;5.10;4.80;;;25.70;78.00;;;;;;5134837;27;20863;-90
2021/06/06 01:21:22;;;;;;;4.90;4.60;;;25.60;78.80;;;;;;5135049;27;20432;-90
2021/06/06 01:24:12;;;;;;;4.40;4.10;;;25.70;78.10;;;;;;5135048;27;20432;-90
2021/06/06 01:26:43;;;;;;;5.20;4.80;;;25.70;78.00;;;;;;5135060;27;20462;-90
2021/06/06 01:29:22;;;;;;;4.53;4.23;;;25.80;78.20;;;;;;5135020;27;20448;-90
2021/06/06 01:31:53;;;;;;;4.40;4.10;;;25.70;78.10;;;;;;5135222;27;20501;-90
2021/06/06 01:34:23;;;;;;;4.50;4.20;;;25.70;78.10;;;;;;5134960;27;20467;-90
2021/06/06 01:36:54;;;;;;;4.30;4.10;;;25.70;78.90;;;;;;5135067;27;20487;-90
2021/06/06 01:39:25;;;;;;;4.20;3.90;;;25.70;78.10;;;;;;5135724;28;20566;-90
2021/06/06 01:41:56;;;;;;;4.27;4.00;;;25.70;78.10;;;;;;5136341;28;20526;-90
2021/06/06 01:44:26;;;;;;;4.60;4.30;;;25.70;78.00;;;;;;5134430;28;20491;-91
2021/06/06 01:46:56;;;;;;;4.20;3.90;;;25.70;78.10;;;;;;5134046;28;20443;-91
2021/06/06 01:49:25;;;;;;;4.90;4.60;;;25.70;78.00;;;;;;5137685;28;20437;-90
2021/06/06 01:51:54;;;;;;;4.90;4.60;;;25.70;78.10;;;;;;5138237;28;20560;-90
2021/06/06 01:54:25;;;;;;;4.37;4.07;;;25.70;78.10;;;;;;5134587;28;20432;-91
2021/06/06 01:56:53;;;;;;;4.40;4.10;;;25.70;78.00;;;;;;5134417;28;20442;-91
2021/06/06 01:59:26;;;;;;;4.40;4.10;;;25.70;78.00;;;;;;5134125;28;20491;-91
2021/06/06 02:01:54;;;;;;;4.27;3.97;;;25.70;78.00;;;;;;5134093;28;20441;-91
2021/06/06 02:04:22;;;;;;;5.03;4.73;;;25.70;78.00;;;;;;5134180;28;20537;-91
2021/06/06 02:06:52;;;;;;;4.20;4.00;;;25.60;78.00;;;;;;5145895;28;20537;-91
2021/06/06 02:09:25;;;;;;;4.70;4.40;;;25.60;77.90;;;;;;5148932;28;20432;-91
2021/06/06 02:11:54;;;;;;;4.30;4.10;;;25.60;78.00;;;;;;5152757;28;20413;-86
2021/06/06 02:14:24;;;;;;;4.00;3.73;;;25.60;77.90;;;;;;5137048;28;20428;-91
2021/06/06 02:16:54;;;;;;;5.03;4.73;;;25.60;77.90;;;;;;5135121;28;20524;-91
2021/06/06 02:19:24;;;;;;;4.80;4.50;;;25.60;78.00;;;;;;5134875;27;20533;-90
2021/06/06 02:21:51;;;;;;;4.37;4.17;;;25.60;77.90;;;;;;5138392;27;20852;-91
2021/06/06 02:24:17;;;;;;;4.20;3.90;;;25.60;77.90;;;;;;5137892;27;20552;-91
2021/06/06 02:26:51;;;;;;;4.00;3.80;;;25.60;77.90;;;;;;5138082;27;20436;-91
2021/06/06 02:29:25;;;;;;;4.60;4.30;;;25.60;77.90;;;;;;5119446;27;20443;-91
2021/06/06 02:31:59;;;;;;;3.97;3.77;;;25.60;77.90;;;;;;5119352;27;20787;-91
2021/06/06 02:34:31;;;;;;;3.80;3.60;;;25.60;77.90;;;;;;5137632;27;20424;-91
2021/06/06 02:37:04;;;;;;;3.83;3.63;;;25.60;77.90;;;;;;5137542;27;20439;-91
2021/06/06 02:39:34;;;;;;;4.20;3.90;;;25.60;77.90;;;;;;5137624;27;20489;-91
2021/06/06 02:42:09;;;;;;;4.17;3.97;;;25.60;77.90;;;;;;5137840;27;20450;-91
2021/06/06 02:44:41;;;;;;;4.73;4.43;;;25.60;77.90;;;;;;5137379;27;20629;-91
2021/06/06 02:47:10;;;;;;;4.97;4.67;;;25.60;77.90;;;;;;5137280;27;20524;-90
2021/06/06 02:49:40;;;;;;;4.23;4.03;;;25.60;77.90;;;;;;5137568;27;20444;-91
2021/06/06 02:52:10;;;;;;;3.90;3.70;;;25.60;77.90;;;;;;5137441;27;20445;-90
2021/06/06 02:54:40;;;;;;;3.87;3.67;;;25.60;77.90;;;;;;5137424;27;20464;-91
2021/06/06 02:57:11;;;;;;;4.37;4.07;;;25.60;77.90;;;;;;5137322;27;20460;-91
2021/06/06 02:59:43;;;;;;;3.80;3.60;;;25.60;77.90;;;;;;5137112;27;20535;-91
2021/06/06 03:02:14;;;;;;;4.53;4.23;;;25.60;77.90;;;;;;5137225;27;20476;-91
2021/06/06 03:04:46;;;;;;;3.60;3.40;;;25.60;77.90;;;;;;5137251;27;20433;-91
2021/06/06 03:07:15;;;;;;;3.90;3.70;;;25.60;77.90;;;;;;5137144;27;20439;-91
2021/06/06 03:09:42;;;;;;;3.10;2.90;;;25.60;77.90;;;;;;5137112;27;20519;-91
2021/06/06 03:12:13;;;;;;;3.97;3.77;;;25.60;77.80;;;;;;5136863;27;20922;-91
2021/06/06 03:14:43;;;;;;;3.80;3.60;;;25.60;77.80;;;;;;5136924;27;20439;-91
2021/06/06 03:17:17;;;;;;;3.40;3.20;;;25.60;77.80;;;;;;5136936;27;20439;-91
2021/06/06 03:19:48;;;;;;;3.47;3.27;;;25.60;77.80;;;;;;5137019;27;20566;-91
2021/06/06 03:22:22;;;;;;;4.13;3.83;;;25.60;77.80;;;;;;5136970;27;20453;-91
2021/06/06 03:24:52;;;;;;;3.87;3.60;;;25.60;77.90;;;;;;5136614;27;20472;-91
2021/06/06 03:27:23;;;;;;;3.20;3.00;;;25.60;77.90;;;;;;5136695;27;20476;-91
2021/06/06 03:29:58;;;;;;;3.70;3.50;;;25.60;78.60;;;;;;5136961;27;20446;-91
2021/06/06 03:32:28;;;;;;;3.87;3.67;;;25.60;77.80;;;;;;5136409;27;20439;-91
2021/06/06 03:34:55;;;;;;;3.10;2.90;;;25.60;78.70;;;;;;5118175;27;20432;-91
2021/06/06 03:37:21;;;;;;;3.50;3.30;;;25.60;77.80;;;;;;5136275;27;20502;-91
2021/06/06 03:39:48;;;;;;;3.40;3.20;;;25.50;77.70;;;;;;5136532;27;20480;-91
2021/06/06 03:42:15;;;;;;;4.23;4.03;;;25.50;77.70;;;;;;5136495;27;20437;-91
2021/06/06 03:44:43;;;;;;;3.43;3.23;;;25.50;77.70;;;;;;5136489;27;20439;-90
2021/06/06 03:47:09;;;;;;;3.67;3.47;;;25.60;77.70;;;;;;5136217;27;20520;-91
2021/06/06 03:49:36;;;;;;;3.80;3.60;;;25.60;77.80;;;;;;5136412;27;20528;-91
2021/06/06 03:52:03;;;;;;;3.60;3.40;;;25.50;77.70;;;;;;5136346;27;20428;-91
2021/06/06 03:54:29;;;;;;;3.73;3.53;;;25.50;77.70;;;;;;5136645;27;20489;-91
2021/06/06 03:56:56;;;;;;;3.40;3.20;;;25.60;77.70;;;;;;5136074;27;20471;-91
2021/06/06 03:59:23;;;;;;;3.33;3.13;;;25.50;77.60;;;;;;5136402;27;20490;-91
2021/06/06 04:01:51;;;;;;;3.73;3.53;;;25.50;77.70;;;;;;5136362;27;20455;-91
2021/06/06 04:04:18;;;;;;;3.60;3.40;;;25.50;77.60;;;;;;5136445;27;20450;-91
2021/06/06 04:06:45;;;;;;;3.20;3.00;;;25.50;77.60;;;;;;5136018;27;20500;-91
2021/06/06 04:09:11;;;;;;;3.33;3.13;;;25.50;77.70;;;;;;5135966;27;20440;-91
2021/06/06 04:11:38;;;;;;;3.47;3.27;;;25.60;77.70;;;;;;5136127;27;20435;-91
2021/06/06 04:14:05;;;;;;;3.60;3.40;;;25.70;77.80;;;;;;5136082;27;20798;-91
2021/06/06 04:16:32;;;;;;;4.07;3.87;;;25.60;77.70;;;;;;5135603;27;20442;-91
2021/06/06 04:19:00;;;;;;;3.83;3.60;;;25.50;77.60;;;;;;5136055;27;20559;-90
2021/06/06 04:21:29;;;;;;;4.00;3.70;;;25.50;77.60;;;;;;5136093;27;20489;-91
2021/06/06 04:23:55;;;;;;;3.53;3.33;;;25.50;77.70;;;;;;5135896;27;20440;-91
2021/06/06 04:26:23;;;;;;;3.63;3.43;;;25.50;77.70;;;;;;5135510;27;20504;-91
2021/06/06 04:28:49;;;;;;;3.53;3.33;;;25.50;77.60;;;;;;5135999;27;20445;-91
2021/06/06 04:31:17;;;;;;;4.23;3.93;;;25.50;77.60;;;;;;5135659;27;20944;-90
2021/06/06 04:33:44;;;;;;;3.80;3.60;;;25.50;77.60;;;;;;5135624;27;20455;-91
2021/06/06 04:36:12;;;;;;;4.10;3.90;;;25.50;77.60;;;;;;5135147;27;20439;-91
2021/06/06 04:38:39;;;;;;;3.60;3.40;;;25.50;77.60;;;;;;5134892;27;20471;-91
2021/06/06 04:41:07;;;;;;;3.40;3.20;;;25.50;77.60;;;;;;5135462;27;20458;-90
2021/06/06 04:43:34;;;;;;;3.97;3.77;;;25.50;77.60;;;;;;5134803;27;20578;-91
2021/06/06 04:46:01;;;;;;;3.40;3.20;;;25.50;77.60;;;;;;5135750;27;20435;-91
2021/06/06 04:48:29;;;;;;;4.33;4.10;;;25.50;77.60;;;;;;5135240;27;20444;-91
2021/06/06 04:50:56;;;;;;;4.00;3.80;;;25.50;77.60;;;;;;5134955;27;20495;-91
2021/06/06 04:53:25;;;;;;;3.50;3.30;;;25.50;77.60;;;;;;5135701;27;20939;-91
2021/06/06 04:55:52;;;;;;;4.07;3.87;;;25.50;77.90;;;;;;5135677;27;20452;-91
2021/06/06 04:58:21;;;;;;;3.73;3.53;;;25.50;77.60;;;;;;5136456;27;20449;-91
2021/06/06 05:00:49;;;;;;;3.30;3.10;;;25.50;77.60;;;;;;5137403;27;20541;-91
2021/06/06 05:03:17;;;;;;;3.90;3.70;;;25.50;77.60;;;;;;5137345;27;20443;-91
2021/06/06 05:05:44;;;;;;;3.10;2.90;;;25.50;77.60;;;;;;5136595;27;20520;-91
2021/06/06 05:08:12;;;;;;;3.10;2.90;;;25.50;77.60;;;;;;5138362;27;20981;-91
2021/06/06 05:10:42;;;;;;;3.33;3.13;;;25.50;77.60;;;;;;5138592;27;20538;-91
2021/06/06 05:13:08;;;;;;;3.77;3.57;;;25.50;77.50;;;;;;5138885;27;20432;-91
2021/06/06 05:15:36;;;;;;;3.77;3.57;;;25.50;77.60;;;;;;5136446;27;20444;-91
2021/06/06 05:18:04;;;;;;;3.97;3.77;;;25.50;77.60;;;;;;5135181;27;21012;-90
2021/06/06 05:20:33;;;;;;;4.30;4.00;;;25.50;77.60;;;;;;5134768;27;20970;-90
2021/06/06 05:23:00;;;;;;;3.87;3.67;;;25.50;77.60;;;;;;5134670;27;20445;-91
2021/06/06 05:25:26;;;;;;;3.10;2.90;;;25.50;77.60;;;;;;5134562;27;20555;-92
2021/06/06 05:27:54;;;;;;;3.93;3.73;;;25.50;77.50;;;;;;5134465;27;20439;-91
2021/06/06 05:30:23;;;;;;;3.77;3.57;;;25.50;77.50;;;;;;5134679;27;20458;-91
2021/06/06 05:32:50;;;;;;;3.60;3.40;;;25.50;77.60;;;;;;5134686;27;20540;-92
2021/06/06 05:35:18;;;;;;;3.87;3.67;;;25.50;77.50;;;;;;5134377;27;20946;-91
2021/06/06 05:37:44;;;;;;;3.30;3.10;;;25.50;77.60;;;;;;5134123;27;20471;-90
2021/06/06 05:40:11;;;;;;;3.97;3.73;;;25.50;77.60;;;;;;5134402;27;20479;-91
2021/06/06 05:42:38;;;;;;;3.60;3.40;;;25.50;77.50;;;;;;5134656;28;20437;-91
2021/06/06 05:45:07;;;;;;;3.67;3.47;;;25.50;77.60;;;;;;5134556;28;20449;-91
2021/06/06 05:47:33;;;;;;;3.23;3.03;;;25.50;77.50;;;;;;5134248;28;20439;-91
2021/06/06 05:50:00;;;;;;;3.47;3.27;;;25.50;77.60;;;;;;5134307;28;20436;-91
2021/06/06 05:52:26;;;;;;;3.60;3.40;;;25.50;77.50;;;;;;5134318;28;20531;-91
2021/06/06 05:54:52;;;;;;;3.20;3.00;;;25.50;77.50;;;;;;5136979;27;20556;-91
2021/06/06 05:57:19;;;;;;;4.10;3.80;;;25.50;77.50;;;;;;5138310;27;20511;-91
2021/06/06 05:59:45;;;;;;;3.63;3.40;;;25.50;77.50;;;;;;5138287;27;20484;-91
2021/06/06 06:02:13;;;;;;;4.33;4.03;;;25.50;77.50;;;;;;5138369;27;20500;-91
2021/06/06 06:04:39;;;;;;;3.80;3.50;;;25.50;77.50;;;;;;5138549;27;20540;-88
2021/06/06 06:07:05;;;;;;;3.80;3.50;;;25.50;77.50;;;;;;5138148;27;20492;-86
2021/06/06 06:09:32;;;;;;;10.80;9.80;;;25.50;77.20;;;;;;5137898;27;20432;-90
2021/06/06 06:11:58;;;;;;;11.47;10.47;;;25.40;76.20;;;;;;5137927;27;20463;-86
2021/06/06 06:14:25;;;;;;;12.33;10.83;;;25.40;76.10;;;;;;5138895;27;20443;-87
2021/06/06 06:16:51;;;;;;;12.67;10.87;;;25.40;76.00;;;;;;5139330;27;20487;-90
2021/06/06 06:19:19;;;;;;;13.90;11.90;;;25.30;75.80;;;;;;5138959;27;20555;-90
2021/06/06 06:21:45;;;;;;;20.23;12.70;;;25.30;75.60;;;;;;5140247;27;20440;-91
2021/06/06 06:24:12;;;;;;;13.10;11.77;;;25.20;75.70;;;;;;5139106;27;20529;-91
2021/06/06 06:26:39;;;;;;;14.50;11.70;;;25.20;75.90;;;;;;5136177;27;20456;-91
2021/06/06 06:29:07;;;;;;;13.33;12.00;;;25.20;76.00;;;;;;5135148;27;20496;-90
2021/06/06 06:31:33;;;;;;;14.57;13.07;;;25.10;76.10;;;;;;5137409;27;20450;-91
2021/06/06 06:34:00;;;;;;;16.37;12.80;;;25.10;76.10;;;;;;5135937;27;20924;-91
2021/06/06 06:36:28;;;;;;;14.10;12.70;;;25.10;76.10;;;;;;5137353;27;20443;-91
2021/06/06 06:38:55;;;;;;;14.33;12.60;;;25.20;76.20;;;;;;5137689;27;20882;-90
2021/06/06 06:41:22;;;;;;;14.73;12.03;;;25.00;76.20;;;;;;5138813;27;20449;-91
2021/06/06 06:43:49;;;;;;;13.83;12.30;;;24.90;76.20;;;;;;5139170;27;20481;-90
2021/06/06 06:46:15;;;;;;;17.07;13.77;;;25.00;76.20;;;;;;5138043;27;20457;-91
2021/06/06 06:48:42;;;;;;;16.10;14.17;;;25.00;76.40;;;;;;5137933;27;20438;-90
2021/06/06 06:51:09;;;;;;;15.00;12.67;;;25.00;76.30;;;;;;5138317;27;20495;-91
2021/06/06 06:53:39;;;;;;;14.20;12.03;;;25.00;76.40;;;;;;5137639;27;20951;-91
2021/06/06 06:56:05;;;;;;;14.53;12.80;;;25.00;76.70;;;;;;5137630;27;20465;-88
2021/06/06 06:58:32;;;;;;;12.63;11.53;;;25.00;76.80;;;;;;5138131;27;21025;-90
2021/06/06 07:00:58;;;;;;;16.20;13.77;;;24.90;76.80;;;;;;5138184;27;20573;-87
2021/06/06 07:03:27;;;;;;;17.73;15.60;;;24.90;76.70;;;;;;5138833;27;20974;-85
2021/06/06 07:05:55;;;;;;;14.50;13.00;;;24.90;76.60;;;;;;5138476;27;20556;-86
2021/06/06 07:08:24;;;;;;;16.90;14.90;;;24.90;76.50;;;;;;5140084;27;20445;-89
2021/06/06 07:10:52;;;;;;;17.87;13.13;;;25.00;76.30;;;;;;5139446;27;20449;-87
2021/06/06 07:13:19;;;;;;;15.50;13.90;;;24.90;76.20;;;;;;5137881;27;20440;-87
2021/06/06 07:15:46;;;;;;;14.67;12.40;;;24.90;76.30;;;;;;5137733;27;20485;-88
2021/06/06 07:18:18;;;;;;;15.40;12.13;;;24.90;76.50;;;;;;5133095;27;20438;-86
2021/06/06 07:20:45;;;;;;;12.87;10.70;;;24.90;76.60;;;;;;5122693;27;20477;-90
2021/06/06 07:23:13;;;;;;;8.70;7.80;;;25.00;76.80;;;;;;5116441;28;20472;-91
2021/06/06 07:25:41;;;;;;;10.13;8.10;;;25.00;77.00;;;;;;5116292;28;20463;-91
2021/06/06 07:28:10;;;;;;;8.77;7.97;;;25.10;76.90;;;;;;5116022;28;20443;-90
2021/06/06 07:30:41;;;;;;;9.90;7.77;;;25.20;77.00;;;;;;5116057;28;20480;-90
2021/06/06 07:33:08;;;;;;;9.03;7.40;;;25.10;76.90;;;;;;5116147;28;20441;-90
2021/06/06 07:35:35;;;;;;;8.70;7.80;;;25.10;76.90;;;;;;5115882;28;20495;-90
2021/06/06 07:38:02;;;;;;;7.27;6.67;;;25.10;76.90;;;;;;5115613;28;20476;-87
2021/06/06 07:40:32;;;;;;;7.73;7.03;;;25.20;77.70;;;;;;5115960;28;20995;-88
2021/06/06 07:42:58;;;;;;;8.87;7.27;;;25.20;76.80;;;;;;5115968;28;20436;-87
2021/06/06 07:45:28;;;;;;;6.93;6.30;;;25.20;76.60;;;;;;5116114;28;20513;-87
2021/06/06 07:47:55;;;;;;;6.83;6.23;;;25.20;76.60;;;;;;5116012;28;20481;-87
2021/06/06 07:50:25;;;;;;;15.10;6.70;;;25.20;76.60;;;;;;5116020;28;20445;-87
2021/06/06 07:52:52;;;;;;;7.17;6.57;;;25.30;76.60;;;;;;5115852;28;20569;-87
2021/06/06 07:55:21;;;;;;;7.43;5.90;;;25.20;76.40;;;;;;5115601;28;20981;-88
2021/06/06 07:57:48;;;;;;;5.57;5.13;;;25.30;76.50;;;;;;5115497;28;20436;-88
2021/06/06 08:00:18;;;;;;;6.93;6.17;;;25.30;76.50;;;;;;5115649;28;20842;-88
2021/06/06 08:02:45;;;;;;;11.70;6.10;;;25.30;76.50;;;;;;5115491;28;20952;-88
2021/06/06 08:05:13;;;;;;;6.53;6.03;;;25.30;76.40;;;;;;5116024;28;20441;-88
2021/06/06 08:07:39;;;;;;;6.43;5.93;;;25.30;76.40;;;;;;5115588;28;20582;-87
2021/06/06 08:10:08;;;;;;;6.17;5.67;;;25.30;76.40;;;;;;5115731;28;20531;-88
2021/06/06 08:12:34;;;;;;;6.30;5.80;;;25.30;76.40;;;;;;5115459;28;20451;-88
2021/06/06 08:15:01;;;;;;;6.27;5.67;;;25.30;76.40;;;;;;5116182;28;20447;-86
2021/06/06 08:17:27;;;;;;;6.23;5.63;;;25.30;76.40;;;;;;5114688;28;20448;-87
2021/06/06 08:19:55;;;;;;;6.03;5.53;;;25.40;76.50;;;;;;5115466;28;20476;-87
2021/06/06 08:22:21;;;;;;;6.07;5.67;;;25.30;76.40;;;;;;5115509;28;20942;-87
2021/06/06 08:24:48;;;;;;;5.93;5.53;;;25.30;76.40;;;;;;5115673;28;20460;-87
2021/06/06 08:27:18;;;;;;;6.00;5.50;;;25.30;76.30;;;;;;5115874;28;20505;-86
2021/06/06 08:29:44;;;;;;;6.03;5.27;;;25.30;76.40;;;;;;5115823;28;20452;-87
2021/06/06 08:32:12;;;;;;;5.93;5.50;;;25.30;76.40;;;;;;5115716;28;20463;-87
2021/06/06 08:34:38;;;;;;;5.87;5.37;;;25.30;76.40;;;;;;5115182;28;20438;-87
2021/06/06 08:37:06;;;;;;;5.27;4.87;;;25.30;76.40;;;;;;5115488;28;20437;-87
2021/06/06 08:39:34;;;;;;;6.07;5.57;;;25.40;76.40;;;;;;5115570;28;20484;-86
2021/06/06 08:42:05;;;;;;;5.70;5.20;;;25.30;76.40;;;;;;5116267;28;20442;-87
2021/06/06 08:44:34;;;;;;;5.60;5.10;;;25.40;76.40;;;;;;5116206;28;20835;-86
2021/06/06 08:47:04;;;;;;;6.70;6.03;;;25.40;76.40;;;;;;5115114;28;20448;-87
2021/06/06 08:49:35;;;;;;;7.00;6.30;;;25.40;76.40;;;;;;5114713;28;20532;-87
2021/06/06 08:52:34;;;;;;;8.10;6.70;;;25.40;76.40;;;;;;5114533;28;20433;-87
2021/06/06 08:55:08;;;;;;;7.67;6.30;;;25.40;76.40;;;;;;5113992;28;20464;-88
2021/06/06 08:57:39;;;;;;;13.33;10.47;;;25.40;76.50;;;;;;5114381;28;20521;-87
2021/06/06 09:00:11;;;;;;;11.53;10.07;;;25.40;76.60;;;;;;5114369;28;20587;-88
2021/06/06 09:02:47;;;;;;;20.23;12.03;;;25.40;76.70;;;;;;5114288;28;20944;-87
2021/06/06 09:05:23;;;;;;;22.70;12.73;;;25.40;76.70;;;;;;5114434;28;20436;-87
2021/06/06 09:07:53;;;;;;;14.90;11.50;;;25.40;76.70;;;;;;5115615;27;21524;-89
2021/06/06 09:10:22;;;;;;;14.70;12.70;;;25.40;76.70;;;;;;5133788;27;20458;-90
2021/06/06 09:12:49;;;;;;;14.93;12.87;;;25.30;76.20;;;;;;5133094;27;20925;-89
2021/06/06 09:15:18;;;;;;;15.00;12.20;;;25.30;76.20;;;;;;5133514;27;20508;-89
2021/06/06 09:17:49;;;;;;;14.57;12.00;;;25.30;76.30;;;;;;5133060;27;20435;-89
2021/06/06 09:20:33;;;;;;;14.40;10.70;;;25.30;76.50;;;;;;5133308;27;20536;-89
2021/06/06 09:23:10;;;;;;;11.40;10.20;;;25.30;76.60;;;;;;5132646;27;20530;-89
2021/06/06 09:25:40;;;;;;;14.70;9.97;;;25.30;76.40;;;;;;5132987;27;20516;-89
2021/06/06 09:28:09;;;;;;;15.40;10.30;;;25.20;76.30;;;;;;5134415;27;20774;-89
2021/06/06 09:30:37;;;;;;;17.87;11.70;;;25.20;76.20;;;;;;5134299;27;20446;-89
2021/06/06 09:33:11;;;;;;;9.33;8.33;;;25.30;76.30;;;;;;5134423;27;20976;-89
2021/06/06 09:35:41;;;;;;;10.97;9.30;;;25.30;76.20;;;;;;5134204;27;20961;-89
2021/06/06 09:38:15;;;;;;;13.07;8.90;;;25.30;76.20;;;;;;5134035;27;21058;-89
2021/06/06 09:40:44;;;;;;;12.37;9.13;;;25.30;76.10;;;;;;5115829;28;20469;-88
2021/06/06 09:43:22;;;;;;;9.53;8.50;;;25.30;76.10;;;;;;5134207;28;21006;-89
2021/06/06 09:45:48;;;;;;;12.07;9.90;;;25.30;76.00;;;;;;5134161;28;20466;-89
2021/06/06 09:48:26;;;;;;;13.70;9.83;;;25.30;76.00;;;;;;5134581;28;20445;-89
2021/06/06 09:50:55;;;;;;;10.50;9.10;;;25.40;76.00;;;;;;5134685;28;20432;-89
2021/06/06 09:53:25;;;;;;;10.90;9.37;;;25.30;75.90;;;;;;5134091;28;20445;-89
2021/06/06 09:56:04;;;;;;;10.37;9.30;;;25.40;76.00;;;;;;5134556;28;20472;-89
2021/06/06 09:58:33;;;;;;;9.90;8.60;;;25.40;76.00;;;;;;5134144;28;20440;-89
2021/06/06 10:01:06;;;;;;;10.23;8.40;;;25.40;75.90;;;;;;5134081;28;20512;-89
2021/06/06 10:03:37;;;;;;;11.63;9.13;;;25.40;75.90;;;;;;5134321;28;20442;-89
2021/06/06 10:06:18;;;;;;;9.73;8.77;;;25.40;75.90;;;;;;5134101;28;21005;-89
2021/06/06 10:08:59;;;;;;;10.90;8.13;;;25.40;75.80;;;;;;5134026;28;20466;-89
2021/06/06 10:11:36;;;;;;;11.37;9.03;;;25.40;75.80;;;;;;5134067;28;20448;-90
2021/06/06 10:14:04;;;;;;;13.80;9.33;;;25.40;75.80;;;;;;5134111;28;20443;-89
2021/06/06 10:16:36;;;;;;;26.43;17.40;;;25.40;75.80;;;;;;5134096;28;20439;-86
2021/06/06 10:19:08;;;;;;;32.50;22.13;;;25.40;76.20;;;;;;5133698;28;20445;-85
2021/06/06 10:21:36;;;;;;;39.73;24.57;;;25.40;76.90;;;;;;5132861;28;20487;-85
2021/06/06 10:24:11;;;;;;;41.60;28.43;;;25.40;77.20;;;;;;5134420;28;20470;-85
2021/06/06 10:26:40;;;;;;;43.70;26.53;;;25.40;77.70;;;;;;5134248;28;20448;-85
2021/06/06 10:29:17;;;;;;;49.67;27.23;;;25.40;78.00;;;;;;5134182;28;20433;-86
2021/06/06 10:31:46;;;;;;;42.53;24.40;;;25.40;78.10;;;;;;5134086;28;20439;-85
2021/06/06 10:34:24;;;;;;;36.83;21.70;;;25.40;78.20;;;;;;5134038;28;20449;-85
2021/06/06 10:36:50;;;;;;;31.97;20.60;;;25.30;78.40;;;;;;5134376;28;20439;-85
2021/06/06 10:39:21;;;;;;;22.73;15.70;;;25.30;78.40;;;;;;5134309;28;20486;-86
2021/06/06 10:41:54;;;;;;;28.73;18.47;;;25.30;78.30;;;;;;5137054;27;20526;-86
2021/06/06 10:44:24;;;;;;;23.23;16.50;;;25.30;78.10;;;;;;5137769;27;20423;-85
2021/06/06 10:46:54;;;;;;;21.17;16.00;;;25.30;78.10;;;;;;5137542;27;20452;-89
2021/06/06 10:49:24;;;;;;;22.77;16.30;;;25.30;77.80;;;;;;5136798;27;20440;-90
2021/06/06 10:51:54;;;;;;;21.90;14.43;;;25.30;77.50;;;;;;5137609;27;20436;-90
2021/06/06 10:54:36;;;;;;;22.70;15.37;;;25.30;77.20;;;;;;5137806;27;20467;-90
2021/06/06 10:57:05;;;;;;;18.40;14.10;;;25.30;77.00;;;;;;5137750;27;20869;-90
2021/06/06 10:59:44;;;;;;;20.30;14.00;;;25.30;77.00;;;;;;5137445;27;20511;-90
2021/06/06 11:02:29;;;;;;;20.57;13.70;;;25.30;76.90;;;;;;5137457;27;20436;-90
2021/06/06 11:04:57;;;;;;;22.23;15.90;;;25.30;76.80;;;;;;5137478;27;20448;-90
2021/06/06 11:07:35;;;;;;;15.90;12.20;;;25.30;76.80;;;;;;5137049;27;20995;-89
2021/06/06 11:10:07;;;;;;;14.77;12.03;;;25.40;76.70;;;;;;5137642;27;20465;-90
2021/06/06 11:12:35;;;;;;;17.70;13.00;;;25.30;76.60;;;;;;5138209;27;20931;-90
2021/06/06 11:15:16;;;;;;;13.83;12.33;;;25.30;76.40;;;;;;5137237;27;20438;-90
2021/06/06 11:17:42;;;;;;;15.90;13.00;;;25.30;76.30;;;;;;5137453;27;20440;-90
2021/06/06 11:20:13;;;;;;;24.40;13.10;;;25.30;76.20;;;;;;5137207;27;20480;-90
2021/06/06 11:22:42;;;;;;;18.57;13.17;;;25.40;76.10;;;;;;5137320;27;20439;-90
2021/06/06 11:25:29;;;;;;;17.33;12.47;;;25.40;76.10;;;;;;5136883;27;20865;-90
2021/06/06 11:27:59;;;;;;;15.57;11.93;;;25.40;76.00;;;;;;5137054;27;20448;-90
2021/06/06 11:30:41;;;;;;;16.73;12.20;;;25.40;76.10;;;;;;5137262;27;20528;-90
2021/06/06 11:33:10;;;;;;;22.30;13.20;;;25.40;76.00;;;;;;5137247;27;20838;-90
2021/06/06 11:35:51;;;;;;;18.83;12.37;;;25.40;76.10;;;;;;5137744;27;20932;-90
2021/06/06 11:38:47;;;;;;;18.27;12.37;;;25.40;76.10;;;;;;5137454;27;20471;-90
2021/06/06 11:41:31;;;;;;;16.97;12.27;;;25.40;76.10;;;;;;5128383;27;20590;-91
2021/06/06 11:44:09;;;;;;;15.10;12.03;;;25.40;76.00;;;;;;5142892;27;20431;-90
2021/06/06 11:46:39;;;;;;;17.20;12.43;;;25.40;76.90;;;;;;5161637;27;20517;-90
2021/06/06 11:49:19;;;;;;;13.83;10.57;;;25.40;76.00;;;;;;5161283;27;20451;-88
2021/06/06 11:51:48;;;;;;;14.07;10.67;;;25.40;76.00;;;;;;5155472;27;20463;-90
2021/06/06 11:54:23;;;;;;;15.03;11.40;;;25.40;75.90;;;;;;5142045;27;20461;-90
2021/06/06 11:56:54;;;;;;;13.07;11.43;;;25.40;75.90;;;;;;5141601;27;20515;-89
2021/06/06 11:59:26;;;;;;;15.93;10.83;;;25.40;76.00;;;;;;5136018;27;20440;-88
2021/06/06 12:01:56;;;;;;;13.53;10.90;;;25.40;76.50;;;;;;5139927;27;20925;-88
2021/06/06 12:04:29;;;;;;;16.53;10.87;;;25.40;76.80;;;;;;5128601;27;20797;-88
2021/06/06 12:06:57;;;;;;;13.80;10.70;;;25.40;76.70;;;;;;5125206;27;20791;-88
2021/06/06 12:09:26;;;;;;;12.50;9.97;;;25.40;76.60;;;;;;5125386;27;20431;-89
2021/06/06 12:12:06;;;;;;;15.47;11.07;;;25.40;76.20;;;;;;5129902;27;20427;-89
2021/06/06 12:14:33;;;;;;;18.87;11.07;;;25.40;76.10;;;;;;5125791;27;20455;-89
2021/06/06 12:17:03;;;;;;;13.83;10.50;;;25.40;76.20;;;;;;5124528;27;20828;-87
2021/06/06 12:19:40;;;;;;;17.40;10.33;;;25.40;76.20;;;;;;5124105;27;20504;-89
2021/06/06 12:22:09;;;;;;;14.67;10.43;;;25.40;77.80;;;;;;5115285;28;20437;-90
2021/06/06 12:24:36;;;;;;;9.93;8.90;;;25.40;77.30;;;;;;5114782;28;20460;-89
2021/06/06 12:27:10;;;;;;;13.00;10.27;;;25.40;76.90;;;;;;5114646;28;20432;-89
2021/06/06 12:29:45;;;;;;;13.70;10.20;;;25.40;76.60;;;;;;5114804;28;20533;-89
2021/06/06 12:32:14;;;;;;;11.50;9.00;;;25.40;76.40;;;;;;5117071;27;20448;-89
2021/06/06 12:34:41;;;;;;;13.07;10.10;;;25.40;76.40;;;;;;5125846;27;20432;-89
2021/06/06 12:37:16;;;;;;;12.93;10.03;;;25.40;76.30;;;;;;5122976;27;20439;-90
2021/06/06 12:39:45;;;;;;;11.40;9.07;;;25.40;76.40;;;;;;5122979;27;20443;-90
2021/06/06 12:42:14;;;;;;;16.03;10.10;;;25.40;76.40;;;;;;5128790;27;20448;-90
2021/06/06 12:44:44;;;;;;;16.20;9.37;;;25.40;76.40;;;;;;5135336;27;20451;-90
2021/06/06 12:47:24;;;;;;;11.83;9.13;;;25.40;76.60;;;;;;5135381;27;20446;-90
2021/06/06 12:49:53;;;;;;;12.03;9.00;;;25.40;76.60;;;;;;5123901;27;20451;-90
2021/06/06 12:52:25;;;;;;;14.63;10.80;;;25.40;76.50;;;;;;5121251;27;20443;-90
2021/06/06 12:54:53;;;;;;;10.43;8.80;;;25.40;76.50;;;;;;5129362;27;20502;-89